Time;durP1;ratioP1;P1;durP2;ratioP2;P2;SDS_P1;SDS_P2;PMS_P1;PMS_P2;Temp;Humidity;BMP_temperature;BMP_pressure;BME280_temperature;BME280_humidity;BME280_pressure;Samples;Min_cycle;Max_cycle;Signal;HPM_P1;HPM_P2
2022/11/27 00:01:08;;;;;;;;;;;8.00;69.80;;;;;;5005699;28;19929;-47
2022/11/27 00:03:37;;;;;;;;;;;8.10;69.90;;;;;;4991394;28;19932;-47
2022/11/27 00:06:04;;;;;;;;;;;8.10;69.90;;;;;;4996434;28;19929;-46
2022/11/27 00:08:34;;;;;;;;;;;8.10;69.90;;;;;;5004194;28;19936;-47
2022/11/27 00:11:05;;;;;;;;;;;8.10;69.90;;;;;;5010462;28;19949;-48
2022/11/27 00:13:35;;;;;;;;;;;8.10;69.90;;;;;;4994201;28;20305;-50
2022/11/27 00:16:09;;;;;;;;;;;8.20;70.50;;;;;;4990933;28;20049;-47
2022/11/27 00:18:38;;;;;;;;;;;8.20;69.80;;;;;;5000580;28;19925;-51
2022/11/27 00:21:23;;;;;;;;;;;8.20;69.80;;;;;;5010062;28;20484;-48
2022/11/27 00:23:51;;;;;;;;;;;8.20;69.80;;;;;;5011296;28;19933;-48
2022/11/27 00:26:17;;;;;;;;;;;8.20;69.90;;;;;;5008603;28;19948;-49
2022/11/27 00:28:44;;;;;;;;;;;8.30;70.00;;;;;;5005350;28;20008;-48
2022/11/27 00:31:17;;;;;;;;;;;8.30;70.10;;;;;;5008427;28;20354;-51
2022/11/27 00:33:44;;;;;;;;;;;8.30;70.10;;;;;;4993475;28;19925;-49
2022/11/27 00:36:14;;;;;;;;;;;8.30;70.20;;;;;;4996481;28;19949;-49
2022/11/27 00:38:43;;;;;;;;;;;8.40;70.20;;;;;;5012430;28;20461;-48
2022/11/27 00:41:18;;;;;;;;;;;8.40;70.20;;;;;;5000511;28;20489;-47
2022/11/27 00:43:50;;;;;;;;;;;8.40;70.20;;;;;;4994576;28;19926;-51
2022/11/27 00:46:19;;;;;;;;;;;8.50;70.20;;;;;;5002256;28;19940;-48
2022/11/27 00:48:52;;;;;;;;;;;8.50;70.20;;;;;;5009889;28;19933;-48
2022/11/27 00:51:21;;;;;;;;;;;8.50;70.10;;;;;;5000501;28;19926;-50
2022/11/27 00:53:49;;;;;;;;;;;8.50;70.10;;;;;;5011497;28;19933;-50
2022/11/27 00:56:17;;;;;;;;;;;8.50;70.00;;;;;;4995686;28;20290;-48
2022/11/27 00:58:44;;;;;;;;;;;8.50;69.90;;;;;;5003279;28;20395;-48
2022/11/27 01:01:20;;;;;;;;;;;8.50;69.90;;;;;;4993867;28;20382;-48
2022/11/27 01:03:50;;;;;;;;;;;8.50;69.80;;;;;;5000142;28;20306;-48
2022/11/27 01:06:18;;;;;;;;;;;8.50;69.70;;;;;;5011872;28;19930;-51
2022/11/27 01:08:52;;;;;;;;;;;8.50;69.70;;;;;;5002481;28;19942;-50
2022/11/27 01:11:22;;;;;;;;;;;8.50;69.60;;;;;;4993475;28;19933;-47
2022/11/27 01:13:51;;;;;;;;;;;8.50;69.60;;;;;;4995957;28;19949;-47
2022/11/27 01:16:23;;;;;;;;;;;8.50;69.50;;;;;;5012795;28;20321;-46
2022/11/27 01:18:52;;;;;;;;;;;8.40;69.30;;;;;;5012502;28;20512;-52
2022/11/27 01:21:19;;;;;;;;;;;8.40;69.30;;;;;;5008945;28;19933;-47
2022/11/27 01:23:46;;;;;;;;;;;8.40;69.30;;;;;;5007370;28;20279;-47
2022/11/27 01:26:16;;;;;;;;;;;8.30;69.20;;;;;;5011923;28;19925;-48
2022/11/27 01:28:54;;;;;;;;;;;8.30;69.10;;;;;;4977521;28;20397;-51
2022/11/27 01:31:30;;;;;;;;;;;8.30;69.10;;;;;;4995821;28;19933;-48
2022/11/27 01:33:59;;;;;;;;;;;8.20;69.00;;;;;;5008515;28;19934;-50
2022/11/27 01:36:28;;;;;;;;;;;8.20;69.00;;;;;;5005025;28;19933;-51
2022/11/27 01:38:56;;;;;;;;;;;8.10;68.90;;;;;;4993893;28;19938;-47
2022/11/27 01:41:26;;;;;;;;;;;8.10;68.90;;;;;;5005131;28;19926;-51
2022/11/27 01:43:58;;;;;;;;;;;8.00;68.80;;;;;;5004330;28;20457;-52
2022/11/27 01:46:33;;;;;;;;;;;7.90;68.80;;;;;;5004638;28;19941;-47
2022/11/27 01:49:00;;;;;;;;;;;7.90;68.80;;;;;;4995188;28;19932;-50
2022/11/27 01:51:26;;;;;;;;;;;7.80;68.80;;;;;;5009488;28;19929;-51
2022/11/27 01:53:59;;;;;;;;;;;7.80;68.90;;;;;;5012105;28;20044;-48
2022/11/27 01:56:28;;;;;;;;;;;7.80;69.10;;;;;;5012328;28;19926;-47
2022/11/27 01:58:57;;;;;;;;;;;7.70;69.10;;;;;;5004480;28;20337;-47
2022/11/27 02:01:26;;;;;;;;;;;7.70;69.30;;;;;;5000066;28;19933;-50
2022/11/27 02:03:57;;;;;;;;;;;7.70;69.40;;;;;;5009188;28;19932;-51
2022/11/27 02:06:24;;;;;;;;;;;7.70;69.60;;;;;;4992423;28;19929;-49
2022/11/27 02:08:53;;;;;;;;;;;7.70;69.70;;;;;;4992690;28;19926;-50
2022/11/27 02:11:40;;;;;;;;;;;7.70;69.80;;;;;;5009690;28;19980;-48
2022/11/27 02:14:09;;;;;;;;;;;7.70;69.90;;;;;;5005626;28;19932;-49
2022/11/27 02:16:44;;;;;;;;;;;7.70;70.10;;;;;;5011879;28;19971;-51
2022/11/27 02:19:37;;;;;;;;;;;7.80;70.30;;;;;;5005401;28;19926;-48
2022/11/27 02:22:24;;;;;;;;;;;7.80;70.40;;;;;;4991408;28;19972;-49
2022/11/27 02:25:05;;;;;;;;;;;7.90;70.50;;;;;;5002997;28;19932;-48
2022/11/27 02:27:34;;;;;;;;;;;7.90;70.70;;;;;;4995370;28;19926;-49
2022/11/27 02:30:02;;;;;;;;;;;8.00;70.70;;;;;;5007324;28;19925;-48
2022/11/27 02:32:38;;;;;;;;;;;8.00;70.80;;;;;;5003856;28;19929;-48
2022/11/27 02:35:19;;;;;;;;;;;8.10;70.80;;;;;;4992317;28;19932;-51
2022/11/27 02:37:45;;;;;;;;;;;8.10;70.80;;;;;;4996339;28;19926;-48
2022/11/27 02:40:21;;;;;;;;;;;8.20;71.10;;;;;;5011624;28;20431;-47
2022/11/27 02:42:50;;;;;;;;;;;8.30;70.80;;;;;;5001206;28;19968;-50
2022/11/27 02:45:25;;;;;;;;;;;8.30;70.70;;;;;;4991334;28;19980;-47
2022/11/27 02:47:55;;;;;;;;;;;8.40;70.70;;;;;;5003953;28;19933;-51
2022/11/27 02:50:23;;;;;;;;;;;8.40;70.70;;;;;;5011534;28;20008;-51
2022/11/27 02:52:52;;;;;;;;;;;8.50;70.70;;;;;;5010844;28;19926;-47
2022/11/27 02:55:23;;;;;;;;;;;8.50;70.60;;;;;;5006500;28;20306;-49
2022/11/27 02:57:51;;;;;;;;;;;8.50;70.50;;;;;;4999006;28;19926;-49
2022/11/27 03:00:18;;;;;;;;;;;8.60;70.50;;;;;;5011197;28;19932;-50
2022/11/27 03:02:48;;;;;;;;;;;8.60;70.50;;;;;;4993522;28;19926;-49
2022/11/27 03:05:21;;;;;;;;;;;8.60;70.40;;;;;;4994165;28;19980;-48
2022/11/27 03:08:00;;;;;;;;;;;8.60;70.40;;;;;;5007302;28;19961;-47
2022/11/27 03:10:33;;;;;;;;;;;8.60;70.40;;;;;;5003610;28;20386;-47
2022/11/27 03:13:01;;;;;;;;;;;8.70;70.40;;;;;;4991887;28;19926;-50
2022/11/27 03:15:48;;;;;;;;;;;8.70;70.30;;;;;;4998359;28;19932;-46
2022/11/27 03:18:20;;;;;;;;;;;8.70;70.30;;;;;;5000716;28;19926;-49
2022/11/27 03:20:58;;;;;;;;;;;8.70;70.30;;;;;;5010382;28;20405;-48
2022/11/27 03:23:28;;;;;;;;;;;8.70;70.30;;;;;;5011088;28;19925;-51
2022/11/27 03:25:54;;;;;;;;;;;8.80;70.30;;;;;;5003060;28;20000;-51
2022/11/27 03:28:21;;;;;;;;;;;8.80;70.30;;;;;;5008369;28;19925;-51
2022/11/27 03:30:50;;;;;;;;;;;8.80;70.30;;;;;;4992145;28;19937;-50
2022/11/27 03:33:21;;;;;;;;;;;8.90;70.30;;;;;;4992801;28;19933;-49
2022/11/27 03:35:52;;;;;;;;;;;8.90;70.30;;;;;;5006366;28;19957;-49
2022/11/27 03:38:19;;;;;;;;;;;8.90;70.30;;;;;;5004239;28;19948;-48
2022/11/27 03:40:53;;;;;;;;;;;8.90;70.20;;;;;;4991510;28;20290;-51
2022/11/27 03:43:25;;;;;;;;;;;9.00;70.20;;;;;;4995094;28;19953;-51
2022/11/27 03:45:58;;;;;;;;;;;8.90;70.20;;;;;;5010514;28;19958;-49
2022/11/27 03:48:30;;;;;;;;;;;9.10;70.20;;;;;;5003779;28;20004;-47
2022/11/27 03:50:58;;;;;;;;;;;9.00;70.10;;;;;;4998534;28;19933;-47
2022/11/27 03:53:25;;;;;;;;;;;9.00;70.10;;;;;;5004156;28;20012;-49
2022/11/27 03:56:14;;;;;;;;;;;9.10;70.10;;;;;;5011715;28;19987;-48
2022/11/27 03:58:49;;;;;;;;;;;9.10;70.10;;;;;;4996284;28;19926;-51
2022/11/27 04:01:20;;;;;;;;;;;9.10;70.00;;;;;;4994791;28;19961;-49
2022/11/27 04:03:46;;;;;;;;;;;9.10;70.00;;;;;;5004454;28;19925;-51
2022/11/27 04:06:14;;;;;;;;;;;9.10;69.90;;;;;;5008548;28;19930;-51
2022/11/27 04:08:45;;;;;;;;;;;9.10;69.90;;;;;;4994745;28;19933;-51
2022/11/27 04:11:14;;;;;;;;;;;9.10;69.90;;;;;;5000637;28;20493;-48
2022/11/27 04:13:46;;;;;;;;;;;9.10;69.80;;;;;;5005837;28;19980;-51
2022/11/27 04:16:16;;;;;;;;;;;9.10;70.00;;;;;;5008665;28;20029;-48
2022/11/27 04:18:43;;;;;;;;;;;9.20;69.90;;;;;;4995948;28;19929;-50
2022/11/27 04:21:15;;;;;;;;;;;9.20;69.90;;;;;;5009588;28;19932;-50
2022/11/27 04:23:44;;;;;;;;;;;9.20;69.80;;;;;;5013990;28;20005;-47
2022/11/27 04:26:13;;;;;;;;;;;9.20;69.80;;;;;;5014005;28;19932;-48
2022/11/27 04:28:42;;;;;;;;;;;9.20;69.80;;;;;;5011857;28;19953;-50
2022/11/27 04:31:14;;;;;;;;;;;9.20;69.80;;;;;;5000680;28;19930;-51
2022/11/27 04:33:43;;;;;;;;;;;9.20;69.80;;;;;;5012496;28;20377;-47
2022/11/27 04:36:09;;;;;;;;;;;9.20;69.70;;;;;;4994196;28;19926;-49
2022/11/27 04:38:38;;;;;;;;;;;9.20;69.70;;;;;;4994075;28;20016;-47
2022/11/27 04:41:07;;;;;;;;;;;9.20;69.70;;;;;;5007023;28;20061;-50
2022/11/27 04:43:33;;;;;;;;;;;9.20;69.70;;;;;;5013320;28;20786;-49
2022/11/27 04:46:02;;;;;;;;;;;9.30;69.70;;;;;;4994021;28;19932;-47
2022/11/27 04:48:29;;;;;;;;;;;9.20;69.60;;;;;;4998910;28;19981;-47
2022/11/27 04:50:58;;;;;;;;;;;9.30;69.70;;;;;;5013208;28;20353;-48
2022/11/27 04:53:25;;;;;;;;;;;9.20;69.60;;;;;;5006668;28;20317;-51
2022/11/27 04:55:53;;;;;;;;;;;9.30;69.60;;;;;;4993662;28;19926;-50
2022/11/27 04:58:20;;;;;;;;;;;9.20;69.60;;;;;;5001145;28;19926;-48
2022/11/27 05:00:51;;;;;;;;;;;9.20;69.60;;;;;;5013397;28;20305;-47
2022/11/27 05:03:20;;;;;;;;;;;9.30;69.60;;;;;;4998927;28;19930;-51
2022/11/27 05:05:55;;;;;;;;;;;9.30;69.60;;;;;;4995825;28;19930;-51
2022/11/27 05:08:24;;;;;;;;;;;9.30;69.60;;;;;;5006048;28;20301;-47
2022/11/27 05:11:02;;;;;;;;;;;9.30;69.50;;;;;;5013062;28;20517;-51
2022/11/27 05:13:29;;;;;;;;;;;9.30;69.50;;;;;;4997611;28;19961;-47
2022/11/27 05:15:58;;;;;;;;;;;9.30;69.50;;;;;;4993469;28;19929;-48
2022/11/27 05:18:26;;;;;;;;;;;9.20;69.40;;;;;;5003733;28;20373;-51
2022/11/27 05:20:58;;;;;;;;;;;9.30;69.50;;;;;;5004328;28;20178;-51
2022/11/27 05:23:27;;;;;;;;;;;9.30;69.50;;;;;;5013148;28;19933;-47
2022/11/27 05:25:53;;;;;;;;;;;9.30;69.50;;;;;;5004006;28;19934;-52
2022/11/27 05:28:23;;;;;;;;;;;9.30;69.50;;;;;;5004032;28;19933;-46
2022/11/27 05:30:52;;;;;;;;;;;9.30;69.50;;;;;;5010224;28;20012;-49
2022/11/27 05:33:19;;;;;;;;;;;9.30;69.40;;;;;;4993321;28;19926;-47
2022/11/27 05:35:45;;;;;;;;;;;9.30;69.40;;;;;;4996413;28;20160;-48
2022/11/27 05:38:17;;;;;;;;;;;9.30;69.40;;;;;;5003709;28;19925;-51
2022/11/27 05:40:45;;;;;;;;;;;9.30;69.40;;;;;;5002935;28;19949;-47
2022/11/27 05:43:12;;;;;;;;;;;9.30;69.40;;;;;;4995552;28;19969;-48
2022/11/27 05:45:41;;;;;;;;;;;9.30;69.40;;;;;;5003715;28;19933;-48
2022/11/27 05:48:12;;;;;;;;;;;9.30;69.40;;;;;;5007041;28;20416;-48
2022/11/27 05:50:42;;;;;;;;;;;9.30;69.40;;;;;;4999991;28;19926;-47
2022/11/27 05:53:11;;;;;;;;;;;9.30;69.40;;;;;;4993492;28;20428;-51
2022/11/27 05:55:40;;;;;;;;;;;9.30;69.40;;;;;;5010960;28;19936;-48
2022/11/27 05:58:06;;;;;;;;;;;9.30;69.40;;;;;;4999517;28;19926;-48
2022/11/27 06:00:33;;;;;;;;;;;9.30;69.40;;;;;;4994636;28;19930;-47
2022/11/27 06:03:02;;;;;;;;;;;9.30;69.40;;;;;;5002689;28;20024;-48
2022/11/27 06:05:34;;;;;;;;;;;9.30;69.40;;;;;;5006740;28;19926;-50
2022/11/27 06:08:05;;;;;;;;;;;9.30;69.40;;;;;;5012081;28;19926;-48
2022/11/27 06:10:32;;;;;;;;;;;9.30;69.40;;;;;;5012220;28;19980;-51
2022/11/27 06:13:00;;;;;;;;;;;9.30;69.50;;;;;;5004007;28;20406;-51
2022/11/27 06:15:26;;;;;;;;;;;9.30;69.50;;;;;;5009147;28;19936;-49
2022/11/27 06:17:57;;;;;;;;;;;9.30;69.50;;;;;;4992545;28;19925;-46
2022/11/27 06:20:25;;;;;;;;;;;9.30;69.50;;;;;;4991183;28;19926;-48
2022/11/27 06:22:55;;;;;;;;;;;9.30;69.50;;;;;;5003011;28;19932;-47
2022/11/27 06:25:25;;;;;;;;;;;9.30;69.50;;;;;;5011778;28;19984;-50
2022/11/27 06:27:51;;;;;;;;;;;9.30;69.60;;;;;;5000571;28;19976;-51
2022/11/27 06:30:20;;;;;;;;;;;9.30;69.50;;;;;;4994736;28;19926;-46
2022/11/27 06:32:46;;;;;;;;;;;9.30;69.40;;;;;;5008235;28;20305;-50
2022/11/27 06:35:13;;;;;;;;;;;9.40;69.50;;;;;;5006261;28;19926;-47
2022/11/27 06:37:43;;;;;;;;;;;9.40;69.50;;;;;;4991751;28;19932;-47
2022/11/27 06:40:10;;;;;;;;;;;9.40;69.60;;;;;;5004749;28;20464;-49
2022/11/27 06:42:38;;;;;;;;;;;9.40;69.60;;;;;;4999660;28;19929;-48
2022/11/27 06:45:09;;;;;;;;;;;9.40;69.50;;;;;;5011584;28;20267;-47
2022/11/27 06:47:38;;;;;;;;;;;9.40;69.50;;;;;;4991156;28;19925;-51
2022/11/27 06:50:05;;;;;;;;;;;9.50;69.60;;;;;;5004942;28;20019;-47
2022/11/27 06:52:34;;;;;;;;;;;9.50;69.60;;;;;;5011609;28;19932;-47
2022/11/27 06:55:08;;;;;;;;;;;9.40;69.40;;;;;;4992318;28;19936;-49
2022/11/27 06:57:39;;;;;;;;;;;9.50;69.50;;;;;;4991959;28;19926;-51
2022/11/27 07:00:09;;;;;;;;;;;9.50;69.50;;;;;;5007406;28;20432;-48
2022/11/27 07:02:36;;;;;;;;;;;9.50;69.40;;;;;;5003091;28;19926;-48
2022/11/27 07:05:05;;;;;;;;;;;9.50;69.40;;;;;;4999525;28;19925;-47
2022/11/27 07:07:31;;;;;;;;;;;9.50;69.40;;;;;;4991824;28;20420;-48
2022/11/27 07:09:58;;;;;;;;;;;9.50;69.40;;;;;;4996881;28;20306;-47
2022/11/27 07:12:27;;;;;;;;;;;9.60;69.40;;;;;;5011784;28;19926;-48
2022/11/27 07:15:05;;;;;;;;;;;9.50;69.40;;;;;;4992333;28;19949;-51
2022/11/27 07:17:36;;;;;;;;;;;9.60;69.40;;;;;;4991513;28;19948;-49
2022/11/27 07:20:08;;;;;;;;;;;9.60;69.40;;;;;;5004749;28;19925;-50
2022/11/27 07:22:37;;;;;;;;;;;9.60;69.40;;;;;;5011672;28;19926;-50
2022/11/27 07:25:18;;;;;;;;;;;9.60;69.40;;;;;;5010018;28;20372;-50
2022/11/27 07:27:46;;;;;;;;;;;9.60;69.40;;;;;;5006274;28;19936;-51
2022/11/27 07:30:16;;;;;;;;;;;9.70;69.50;;;;;;5005832;28;20448;-52
2022/11/27 07:32:43;;;;;;;;;;;9.70;69.50;;;;;;4998423;28;20446;-47
2022/11/27 07:35:10;;;;;;;;;;;9.70;69.40;;;;;;5001478;28;20435;-49
2022/11/27 07:37:37;;;;;;;;;;;9.70;69.40;;;;;;5001200;28;19932;-51
2022/11/27 07:40:05;;;;;;;;;;;9.70;69.40;;;;;;5014583;28;19925;-47
2022/11/27 07:42:32;;;;;;;;;;;9.70;69.40;;;;;;5007596;28;19926;-50
2022/11/27 07:45:08;;;;;;;;;;;9.70;69.50;;;;;;4995904;28;19946;-48
2022/11/27 07:47:38;;;;;;;;;;;9.80;69.50;;;;;;5005315;28;19936;-49
2022/11/27 07:50:07;;;;;;;;;;;9.80;69.50;;;;;;4997548;28;19932;-49
2022/11/27 07:52:39;;;;;;;;;;;9.90;69.60;;;;;;4986456;28;19929;-47
2022/11/27 07:55:15;;;;;;;;;;;9.90;69.60;;;;;;5010705;28;20333;-47
2022/11/27 07:57:45;;;;;;;;;;;9.90;69.60;;;;;;5002593;28;19973;-51
2022/11/27 08:00:12;;;;;;;;;;;10.00;69.60;;;;;;5015040;28;19926;-49
2022/11/27 08:02:42;;;;;;;;;;;10.00;69.60;;;;;;5015158;28;19932;-48
2022/11/27 08:05:10;;;;;;;;;;;10.10;69.70;;;;;;5008780;28;19971;-51
2022/11/27 08:07:39;;;;;;;;;;;10.10;69.60;;;;;;5014369;28;20398;-50
2022/11/27 08:10:06;;;;;;;;;;;10.20;69.50;;;;;;5002429;28;19926;-49
2022/11/27 08:12:33;;;;;;;;;;;10.20;69.40;;;;;;4998592;28;19965;-47
2022/11/27 08:15:00;;;;;;;;;;;10.30;69.30;;;;;;5007133;28;19926;-48
2022/11/27 08:17:34;;;;;;;;;;;10.30;69.20;;;;;;5005656;28;19967;-48
2022/11/27 08:20:02;;;;;;;;;;;10.30;69.20;;;;;;5006925;28;19925;-47
2022/11/27 08:22:33;;;;;;;;;;;10.30;69.20;;;;;;5014776;28;19936;-49
2022/11/27 08:25:00;;;;;;;;;;;10.30;69.10;;;;;;5008236;28;19925;-48
2022/11/27 08:27:30;;;;;;;;;;;10.40;69.10;;;;;;5014258;28;19940;-48
2022/11/27 08:29:57;;;;;;;;;;;10.40;69.00;;;;;;4995382;28;20374;-52
2022/11/27 08:32:28;;;;;;;;;;;10.40;69.00;;;;;;4995197;28;19980;-49
2022/11/27 08:34:57;;;;;;;;;;;10.40;69.00;;;;;;5004522;28;20314;-48
2022/11/27 08:37:32;;;;;;;;;;;10.40;69.00;;;;;;5014021;28;19937;-52
2022/11/27 08:40:01;;;;;;;;;;;10.40;69.00;;;;;;4994905;28;19980;-52
2022/11/27 08:42:30;;;;;;;;;;;10.50;69.10;;;;;;4996038;28;19925;-48
2022/11/27 08:44:59;;;;;;;;;;;10.50;69.00;;;;;;5010670;28;20424;-48
2022/11/27 08:47:28;;;;;;;;;;;10.50;69.00;;;;;;5013676;28;19930;-47
2022/11/27 08:49:59;;;;;;;;;;;10.50;69.00;;;;;;5014402;28;19925;-51
2022/11/27 08:52:26;;;;;;;;;;;10.50;69.00;;;;;;5003332;28;19980;-47
2022/11/27 08:54:54;;;;;;;;;;;10.50;69.00;;;;;;5013043;28;19926;-50
2022/11/27 08:57:24;;;;;;;;;;;10.60;69.30;;;;;;5007170;28;19926;-48
2022/11/27 08:59:53;;;;;;;;;;;10.60;69.00;;;;;;4994240;28;19930;-47
2022/11/27 09:02:22;;;;;;;;;;;10.60;69.00;;;;;;5002814;28;19929;-48
2022/11/27 09:04:49;;;;;;;;;;;10.60;68.90;;;;;;5013986;28;19933;-47
2022/11/27 09:07:16;;;;;;;;;;;10.70;69.00;;;;;;4999943;28;19980;-47
2022/11/27 09:09:43;;;;;;;;;;;10.70;68.90;;;;;;4994156;28;19925;-49
2022/11/27 09:12:12;;;;;;;;;;;10.70;68.80;;;;;;4999960;28;19952;-47
2022/11/27 09:14:50;;;;;;;;;;;10.70;68.80;;;;;;5011584;28;19925;-52
2022/11/27 09:17:18;;;;;;;;;;;10.70;68.80;;;;;;4999592;28;19932;-47
2022/11/27 09:19:44;;;;;;;;;;;10.70;68.80;;;;;;4994015;28;19930;-49
2022/11/27 09:22:11;;;;;;;;;;;10.70;68.80;;;;;;4996719;28;20348;-49
2022/11/27 09:24:45;;;;;;;;;;;10.80;68.80;;;;;;5012977;28;19971;-47
2022/11/27 09:27:12;;;;;;;;;;;10.80;68.80;;;;;;5013456;28;19926;-47
2022/11/27 09:29:38;;;;;;;;;;;10.80;68.80;;;;;;5000848;28;19926;-51
2022/11/27 09:32:07;;;;;;;;;;;10.80;68.90;;;;;;5004787;28;19948;-48
2022/11/27 09:34:37;;;;;;;;;;;10.80;68.90;;;;;;5004765;28;19949;-51
2022/11/27 09:37:06;;;;;;;;;;;10.80;69.00;;;;;;4993740;28;19941;-51
2022/11/27 09:39:33;;;;;;;;;;;10.80;69.00;;;;;;5001635;28;19925;-52
2022/11/27 09:42:04;;;;;;;;;;;10.80;69.00;;;;;;5011150;28;19925;-47
2022/11/27 09:44:41;;;;;;;;;;;10.90;69.10;;;;;;4997533;28;19932;-47
2022/11/27 09:47:13;;;;;;;;;;;10.90;69.10;;;;;;4993509;28;19926;-51
2022/11/27 09:49:51;;;;;;;;;;;10.90;69.10;;;;;;5003262;28;19952;-50
2022/11/27 09:52:39;;;;;;;;;;;11.00;69.20;;;;;;5013028;28;19952;-49
2022/11/27 09:55:19;;;;;;;;;;;11.00;69.30;;;;;;5005605;28;19925;-51
2022/11/27 09:57:56;;;;;;;;;;;11.10;69.30;;;;;;5011357;28;21238;-50
2022/11/27 10:00:22;;;;;;;;;;;11.10;69.30;;;;;;5008219;28;19925;-48
2022/11/27 10:02:52;;;;;;;;;;;11.10;69.20;;;;;;5012861;28;19925;-51
2022/11/27 10:05:21;;;;;;;;;;;11.10;69.20;;;;;;5012972;28;19926;-50
2022/11/27 10:08:05;;;;;;;;;;;11.10;69.00;;;;;;5005849;28;20525;-52
2022/11/27 10:10:51;;;;;;;;;;;11.20;69.00;;;;;;5012604;28;19925;-48
2022/11/27 10:13:24;;;;;;;;;;;11.20;69.00;;;;;;5007026;28;19925;-50
2022/11/27 10:15:55;;;;;;;;;;;11.20;69.00;;;;;;5011550;28;19932;-48
2022/11/27 10:18:31;;;;;;;;;;;11.20;68.90;;;;;;5012391;28;19967;-49
2022/11/27 10:21:16;;;;;;;;;;;11.20;68.90;;;;;;5009043;28;20383;-49
2022/11/27 10:23:58;;;;;;;;;;;11.30;69.00;;;;;;5008516;28;19925;-48
2022/11/27 10:26:32;;;;;;;;;;;11.30;69.00;;;;;;5007819;28;19925;-49
2022/11/27 10:29:26;;;;;;;;;;;11.30;69.00;;;;;;5005246;28;19932;-48
2022/11/27 10:31:57;;;;;;;;;;;11.40;69.10;;;;;;5012700;28;20290;-48
2022/11/27 10:34:36;;;;;;;;;;;11.40;69.10;;;;;;5006006;28;19933;-50
2022/11/27 10:37:07;;;;;;;;;;;11.40;69.00;;;;;;5007862;28;19930;-48
2022/11/27 10:39:40;;;;;;;;;;;11.50;69.10;;;;;;4995809;28;19929;-51
2022/11/27 10:42:12;;;;;;;;;;;11.50;69.00;;;;;;4998137;28;20537;-51
2022/11/27 10:44:57;;;;;;;;;;;11.50;69.00;;;;;;5001426;28;20477;-51
2022/11/27 10:47:25;;;;;;;;;;;11.60;69.00;;;;;;4980685;28;20388;-48
2022/11/27 10:49:58;;;;;;;;;;;11.60;68.90;;;;;;5011725;28;19929;-51
2022/11/27 10:52:28;;;;;;;;;;;11.70;68.90;;;;;;5005986;28;19926;-48
2022/11/27 10:54:56;;;;;;;;;;;11.70;68.80;;;;;;5008130;28;19972;-49
2022/11/27 10:57:23;;;;;;;;;;;11.70;68.70;;;;;;5005133;28;19925;-51
2022/11/27 11:00:11;;;;;;;;;;;11.70;68.60;;;;;;4991972;28;19926;-51
2022/11/27 11:02:41;;;;;;;;;;;11.70;68.50;;;;;;4993041;28;19957;-52
2022/11/27 11:05:37;;;;;;;;;;;11.80;68.50;;;;;;5004987;28;19925;-51
2022/11/27 11:08:27;;;;;;;;;;;11.80;68.50;;;;;;5007025;28;19951;-52
2022/11/27 11:11:02;;;;;;;;;;;11.80;68.50;;;;;;5032729;23;19975;-45
2022/11/27 11:13:29;;;;;;;;;;;11.80;68.50;;;;;;5011770;28;19925;-45
2022/11/27 11:16:00;;;;;;;;;;;11.90;68.50;;;;;;5011274;28;19931;-45
2022/11/27 11:18:28;;;;;;;;;;;11.90;68.50;;;;;;5010730;28;19940;-44
2022/11/27 11:21:00;;;;;;;;;;;11.90;68.50;;;;;;5011492;28;19932;-46
2022/11/27 11:23:34;;;;;;;;;;;12.00;68.60;;;;;;5010015;28;19926;-46
2022/11/27 11:26:06;;;;;;;;;;;12.00;68.60;;;;;;5009724;28;19933;-45
2022/11/27 11:28:43;;;;;;;;;;;12.10;68.60;;;;;;4994925;28;20024;-46
2022/11/27 11:31:12;;;;;;;;;;;12.10;68.50;;;;;;4994686;28;20300;-45
2022/11/27 11:33:50;;;;;;;;;;;12.20;68.50;;;;;;5011502;28;19925;-46
2022/11/27 11:36:18;;;;;;;;;;;12.30;68.60;;;;;;5004841;28;20385;-45
2022/11/27 11:38:47;;;;;;;;;;;12.30;68.50;;;;;;4991632;28;19933;-45
2022/11/27 11:41:23;;;;;;;;;;;12.30;68.40;;;;;;5000756;28;19953;-45
2022/11/27 11:43:57;;;;;;;;;;;12.40;68.30;;;;;;5011341;28;19967;-45
2022/11/27 11:46:27;;;;;;;;;;;12.40;68.20;;;;;;5004657;28;20398;-46
2022/11/27 11:48:53;;;;;;;;;;;12.50;68.40;;;;;;4991836;28;19926;-46
2022/11/27 11:51:33;;;;;;;;;;;12.50;68.40;;;;;;5007352;28;20313;-46
2022/11/27 11:54:10;;;;;;;;;;;12.60;68.20;;;;;;4999757;28;19926;-48
2022/11/27 11:56:40;;;;;;;;;;;12.60;68.20;;;;;;4991718;28;19933;-47
2022/11/27 11:59:10;;;;;;;;;;;12.60;68.10;;;;;;5003840;28;19925;-46
2022/11/27 12:01:44;;;;;;;;;;;12.70;68.10;;;;;;5010658;28;19952;-46
2022/11/27 12:04:20;;;;;;;;;;;12.70;68.00;;;;;;5006423;28;19926;-47
2022/11/27 12:06:54;;;;;;;;;;;12.80;68.00;;;;;;4991813;28;19953;-45
2022/11/27 12:09:29;;;;;;;;;;;12.80;67.90;;;;;;5006049;28;19932;-47
2022/11/27 12:12:02;;;;;;;;;;;12.80;67.80;;;;;;5011276;28;19926;-48
2022/11/27 12:14:40;;;;;;;;;;;12.90;67.80;;;;;;4995598;28;19934;-47
2022/11/27 12:17:28;;;;;;;;;;;12.90;67.60;;;;;;4992667;28;19949;-46
2022/11/27 12:20:12;;;;;;;;;;;12.90;67.50;;;;;;5013638;28;19932;-46
2022/11/27 12:22:43;;;;;;;;;;;12.90;67.40;;;;;;5014170;28;20045;-46
2022/11/27 12:25:31;;;;;;;;;;;12.80;67.30;;;;;;5014784;28;19925;-47
2022/11/27 12:28:04;;;;;;;;;;;12.90;67.40;;;;;;5013792;28;20394;-47
2022/11/27 12:30:51;;;;;;;;;;;12.80;67.30;;;;;;5014528;28;19961;-49
2022/11/27 12:33:37;;;;;;;;;;;12.80;67.40;;;;;;4991586;28;19933;-46
2022/11/27 12:36:08;;;;;;;;;;;12.90;67.40;;;;;;5014507;28;19940;-45
2022/11/27 12:39:01;;;;;;;;;;;12.90;67.50;;;;;;5013238;28;19929;-45
2022/11/27 12:41:46;;;;;;;;;;;12.80;67.40;;;;;;5014218;28;19940;-46
2022/11/27 12:44:31;;;;;;;;;;;12.90;68.20;;;;;;5014560;28;20022;-47
2022/11/27 12:47:03;;;;;;;;;;;12.90;67.50;;;;;;5013620;28;19935;-46
2022/11/27 12:49:36;;;;;;;;;;;12.90;67.60;;;;;;5013882;28;20412;-46
2022/11/27 12:52:12;;;;;;;;;;;12.90;67.60;;;;;;5014183;28;20309;-47
2022/11/27 12:54:39;;;;;;;;;;;12.90;67.60;;;;;;5014044;28;20423;-49
2022/11/27 12:57:10;;;;;;;;;;;13.00;67.60;;;;;;5013122;28;19932;-46
2022/11/27 12:59:42;;;;;;;;;;;13.00;67.50;;;;;;5013344;28;20032;-45
2022/11/27 13:02:25;;;;;;;;;;;13.00;67.40;;;;;;5000850;28;20294;-45
2022/11/27 13:04:55;;;;;;;;;;;13.10;67.40;;;;;;5001118;28;19925;-47
2022/11/27 13:07:25;;;;;;;;;;;13.00;67.20;;;;;;5013637;28;19932;-49
2022/11/27 13:09:57;;;;;;;;;;;13.00;67.20;;;;;;5002771;28;19969;-46
2022/11/27 13:12:30;;;;;;;;;;;13.10;67.20;;;;;;5000819;28;20424;-47
2022/11/27 13:15:01;;;;;;;;;;;13.00;67.10;;;;;;5012720;28;19929;-47
2022/11/27 13:17:39;;;;;;;;;;;13.00;67.10;;;;;;5013458;28;19926;-46
2022/11/27 13:20:14;;;;;;;;;;;13.00;67.00;;;;;;5006280;28;19932;-45
2022/11/27 13:22:41;;;;;;;;;;;13.00;67.00;;;;;;4996348;28;19938;-48
2022/11/27 13:25:13;;;;;;;;;;;13.00;67.00;;;;;;5012588;28;20021;-46
2022/11/27 13:27:41;;;;;;;;;;;13.00;67.00;;;;;;5013309;28;20398;-48
2022/11/27 13:30:20;;;;;;;;;;;12.90;66.90;;;;;;4999795;28;19941;-45
2022/11/27 13:32:48;;;;;;;;;;;12.90;66.90;;;;;;5005852;28;20362;-46
2022/11/27 13:35:20;;;;;;;;;;;12.90;66.90;;;;;;5012606;28;19929;-46
2022/11/27 13:37:50;;;;;;;;;;;12.90;66.80;;;;;;5011230;28;19929;-47
2022/11/27 13:40:25;;;;;;;;;;;12.90;66.90;;;;;;4993823;28;19980;-48
2022/11/27 13:42:55;;;;;;;;;;;12.90;67.00;;;;;;5012555;28;19987;-46
2022/11/27 13:45:23;;;;;;;;;;;12.80;67.00;;;;;;5013203;28;19926;-46
2022/11/27 13:47:50;;;;;;;;;;;12.80;67.00;;;;;;4994535;28;19932;-46
2022/11/27 13:50:19;;;;;;;;;;;12.80;67.00;;;;;;4994824;28;20353;-48
2022/11/27 13:52:58;;;;;;;;;;;12.80;67.00;;;;;;5010154;28;19952;-46
2022/11/27 13:55:27;;;;;;;;;;;12.80;67.00;;;;;;5013122;28;19960;-46
2022/11/27 13:57:58;;;;;;;;;;;12.80;67.00;;;;;;5001586;28;20358;-46
2022/11/27 14:00:30;;;;;;;;;;;12.80;67.00;;;;;;4996777;28;19933;-46
2022/11/27 14:03:02;;;;;;;;;;;12.70;66.90;;;;;;5009779;28;19960;-46
2022/11/27 14:05:50;;;;;;;;;;;12.70;66.90;;;;;;5005479;28;20310;-45
2022/11/27 14:08:18;;;;;;;;;;;12.70;67.00;;;;;;4993160;28;19926;-47
2022/11/27 14:10:50;;;;;;;;;;;12.60;67.00;;;;;;4992443;28;19936;-46
2022/11/27 14:13:17;;;;;;;;;;;12.70;67.20;;;;;;5012523;28;20020;-48
2022/11/27 14:15:55;;;;;;;;;;;12.60;67.20;;;;;;5011195;28;19939;-46
2022/11/27 14:18:24;;;;;;;;;;;12.60;67.10;;;;;;4993024;28;20389;-48
2022/11/27 14:21:02;;;;;;;;;;;12.60;67.10;;;;;;5004723;28;19929;-46
2022/11/27 14:23:34;;;;;;;;;;;12.60;67.10;;;;;;5012167;28;19931;-47
2022/11/27 14:26:05;;;;;;;;;;;12.60;67.10;;;;;;4992857;28;20020;-46
2022/11/27 14:28:44;;;;;;;;;;;12.60;67.00;;;;;;4997266;28;20004;-47
2022/11/27 14:31:30;;;;;;;;;;;12.60;67.10;;;;;;5011475;28;19988;-46
2022/11/27 14:34:01;;;;;;;;;;;12.60;67.10;;;;;;5004100;28;20471;-48
2022/11/27 14:36:50;;;;;;;;;;;12.60;67.10;;;;;;5012284;28;19926;-45
2022/11/27 14:39:21;;;;;;;;;;;12.60;67.00;;;;;;5011378;28;19925;-46
2022/11/27 14:42:04;;;;;;;;;;;12.60;67.00;;;;;;5009435;28;19925;-45
2022/11/27 14:44:33;;;;;;;;;;;12.50;67.00;;;;;;4992784;28;19973;-46
2022/11/27 14:47:00;;;;;;;;;;;12.60;67.00;;;;;;4992718;28;20382;-46
2022/11/27 14:49:33;;;;;;;;;;;12.60;67.00;;;;;;5012605;28;19953;-47